Time;durP1;ratioP1;P1;durP2;ratioP2;P2;SDS_P1;SDS_P2;PMS_P1;PMS_P2;Temp;Humidity;BMP_temperature;BMP_pressure;BME280_temperature;BME280_humidity;BME280_pressure;Samples;Min_cycle;Max_cycle;Signal;HPM_P1;HPM_P2
2022/11/14 00:02:22;;;;;;;10.98;7.28;;;;;;;11.94;74.61;102562.20;1717037;82;22000;-87
2022/11/14 00:04:49;;;;;;;11.33;8.08;;;;;;;11.94;74.46;102552.53;1726883;82;21764;-88
2022/11/14 00:07:16;;;;;;;10.43;7.37;;;;;;;11.94;74.36;102559.56;1720714;82;21000;-87
2022/11/14 00:09:42;;;;;;;11.65;7.30;;;;;;;11.91;74.26;102560.30;1713472;82;21077;-87
2022/11/14 00:12:10;;;;;;;12.68;7.28;;;;;;;11.88;74.23;102552.22;1687589;82;39948;-87
2022/11/14 00:14:37;;;;;;;12.68;7.95;;;;;;;11.87;74.18;102556.56;1721027;82;21034;-87
2022/11/14 00:17:04;;;;;;;12.78;8.10;;;;;;;11.85;74.11;102554.69;1716495;82;21752;-87
2022/11/14 00:19:30;;;;;;;10.93;8.20;;;;;;;11.81;74.12;102544.83;1684554;83;20977;-87
2022/11/14 00:21:59;;;;;;;13.08;8.80;;;;;;;11.79;74.14;102540.79;1723647;82;21106;-87
2022/11/14 00:24:25;;;;;;;15.25;8.28;;;;;;;11.77;74.11;102543.77;1710166;82;21131;-87
2022/11/14 00:26:52;;;;;;;12.43;8.43;;;;;;;11.75;74.05;102541.47;1717634;82;21007;-87
2022/11/14 00:29:19;;;;;;;13.85;8.00;;;;;;;11.74;74.10;102538.75;1722924;82;21563;-87
2022/11/14 00:31:45;;;;;;;12.82;8.33;;;;;;;11.75;74.14;102540.55;1728337;82;21836;-87
2022/11/14 00:34:12;;;;;;;14.28;8.58;;;;;;;11.72;74.14;102532.08;1725179;82;21030;-87
2022/11/14 00:36:39;;;;;;;13.08;8.43;;;;;;;11.75;74.15;102531.31;1725425;82;21565;-87
2022/11/14 00:39:05;;;;;;;11.12;8.35;;;;;;;11.72;74.08;102536.03;1718168;82;21639;-87
2022/11/14 00:41:32;;;;;;;12.13;8.58;;;;;;;11.71;74.13;102534.64;1705247;82;21551;-87
2022/11/14 00:43:59;;;;;;;12.90;8.18;;;;;;;11.70;74.12;102529.78;1717665;81;21883;-87
2022/11/14 00:46:25;;;;;;;14.55;9.15;;;;;;;11.70;74.05;102532.84;1719264;82;21900;-87
2022/11/14 00:48:52;;;;;;;13.70;8.90;;;;;;;11.64;73.99;102535.66;1725639;82;21948;-87
2022/11/14 00:51:19;;;;;;;18.75;9.70;;;;;;;11.64;74.06;102537.41;1726259;81;21069;-87
2022/11/14 00:53:45;;;;;;;13.88;9.50;;;;;;;11.64;73.96;102526.86;1717058;82;21738;-87
2022/11/14 00:56:12;;;;;;;15.18;9.20;;;;;;;11.59;73.94;102527.92;1722766;82;20999;-87
2022/11/14 00:58:39;;;;;;;18.35;9.38;;;;;;;11.63;73.98;102532.94;1729085;82;21015;-87
2022/11/14 01:01:05;;;;;;;12.30;8.95;;;;;;;11.62;73.95;102529.83;1726947;82;21070;-87
2022/11/14 01:03:32;;;;;;;11.83;8.53;;;;;;;11.65;73.91;102528.64;1722336;80;21043;-87
2022/11/14 01:06:06;;;;;;;11.83;8.38;;;;;;;11.67;73.83;102520.39;1726731;82;22643;-87
2022/11/14 01:08:32;;;;;;;12.28;7.55;;;;;;;11.67;73.63;102518.68;1701326;81;21007;-87
2022/11/14 01:10:59;;;;;;;12.00;8.13;;;;;;;11.66;73.52;102522.13;1718225;82;21011;-87
2022/11/14 01:13:26;;;;;;;8.98;6.75;;;;;;;11.65;73.53;102516.35;1725387;82;20998;-87
2022/11/14 01:15:53;;;;;;;10.40;6.87;;;;;;;11.65;73.41;102518.98;1717865;82;21062;-87
2022/11/14 01:18:20;;;;;;;11.18;7.80;;;;;;;11.66;73.38;102514.64;1676904;83;21718;-87
2022/11/14 01:20:47;;;;;;;10.32;6.47;;;;;;;11.66;73.27;102513.33;1647996;85;21034;-88
2022/11/14 01:23:15;;;;;;;11.78;6.97;;;;;;;11.64;73.29;102511.03;1670716;84;21512;-87
2022/11/14 01:25:42;;;;;;;8.33;6.30;;;;;;;11.65;73.28;102512.81;1688003;84;21109;-87
2022/11/14 01:28:11;;;;;;;8.43;6.40;;;;;;;11.66;73.26;102507.63;1669262;84;21058;-87
2022/11/14 01:30:38;;;;;;;13.95;7.60;;;;;;;11.67;73.25;102513.41;1736467;82;21801;-87
2022/11/14 01:33:05;;;;;;;9.80;6.87;;;;;;;11.68;73.33;102508.60;1730415;81;21833;-87
2022/11/14 01:35:34;;;;;;;8.78;6.70;;;;;;;11.71;73.22;102502.55;1681815;82;21011;-87
2022/11/14 01:38:00;;;;;;;10.28;6.70;;;;;;;11.69;73.16;102496.30;1665692;84;21022;-87
2022/11/14 01:40:27;;;;;;;8.15;6.40;;;;;;;11.68;73.03;102501.11;1677988;84;21068;-87
2022/11/14 01:43:19;;;;;;;11.12;7.37;;;;;;;11.64;73.04;102487.29;1678012;84;21950;-87
2022/11/14 01:46:02;;;;;;;13.22;6.87;;;;;;;11.64;73.03;102482.91;1680523;84;20984;-87
2022/11/14 01:48:56;;;;;;;9.87;6.10;;;;;;;11.62;72.95;102487.21;1690701;84;21060;-87
2022/11/14 01:51:28;;;;;;;10.10;7.05;;;;;;;11.61;72.91;102489.34;1685151;84;22471;-87
2022/11/14 01:53:57;;;;;;;7.95;6.33;;;;;;;11.60;72.92;102486.63;1691061;84;21542;-87
2022/11/14 01:56:37;;;;;;;8.63;5.62;;;;;;;11.60;72.82;102483.98;1689015;84;21704;-87
2022/11/14 01:59:10;;;;;;;8.65;6.05;;;;;;;11.59;72.75;102479.13;1666196;83;21064;-87
2022/11/14 02:01:47;;;;;;;8.25;5.67;;;;;;;11.58;72.68;102479.05;1683652;84;21045;-87
2022/11/14 02:04:25;;;;;;;8.80;5.70;;;;;;;11.57;72.66;102470.25;1689190;82;21173;-87
2022/11/14 02:06:56;;;;;;;10.15;5.17;;;;;;;11.54;72.54;102464.81;1734091;81;21077;-87
2022/11/14 02:09:23;;;;;;;9.83;5.30;;;;;;;11.54;72.50;102463.92;1723070;82;22482;-87
2022/11/14 02:11:49;;;;;;;7.60;5.70;;;;;;;11.52;72.53;102458.56;1720079;82;21006;-86
2022/11/14 02:14:16;;;;;;;7.97;5.45;;;;;;;11.52;72.45;102462.52;1727084;82;20990;-87
2022/11/14 02:16:43;;;;;;;8.95;5.25;;;;;;;11.47;72.35;102459.67;1730380;82;20995;-87
2022/11/14 02:19:09;;;;;;;8.28;5.67;;;;;;;11.46;72.35;102464.87;1706561;82;21006;-87
2022/11/14 02:21:36;;;;;;;7.47;4.92;;;;;;;11.45;72.28;102467.03;1714640;82;21660;-87
2022/11/14 02:24:09;;;;;;;8.60;5.70;;;;;;;11.42;72.24;102454.58;1721965;82;21959;-87
2022/11/14 02:26:36;;;;;;;9.45;5.42;;;;;;;11.43;72.24;102455.09;1707073;82;21013;-87
2022/11/14 02:29:04;;;;;;;7.60;5.30;;;;;;;11.45;72.25;102448.58;1715852;82;21081;-87
2022/11/14 02:31:30;;;;;;;7.90;5.28;;;;;;;11.44;72.09;102445.01;1723703;82;21021;-87
2022/11/14 02:33:57;;;;;;;9.18;5.35;;;;;;;11.42;71.89;102450.63;1711708;82;21733;-87
2022/11/14 02:36:23;;;;;;;7.08;5.60;;;;;;;11.39;71.76;102445.23;1731822;80;21097;-87
2022/11/14 02:38:50;;;;;;;10.80;6.28;;;;;;;11.36;71.71;102433.20;1725189;82;20979;-87
2022/11/14 02:41:17;;;;;;;8.48;6.42;;;;;;;11.35;71.46;102445.88;1723934;82;21011;-87
2022/11/14 02:43:44;;;;;;;9.18;6.90;;;;;;;11.33;71.30;102446.64;1724880;82;21464;-87
2022/11/14 02:46:10;;;;;;;8.95;6.25;;;;;;;11.30;71.27;102438.19;1729635;82;22917;-87
2022/11/14 02:48:37;;;;;;;8.70;6.10;;;;;;;11.28;71.24;102434.15;1728069;82;21459;-87
2022/11/14 02:51:04;;;;;;;8.80;7.10;;;;;;;11.27;71.16;102432.75;1729776;82;21816;-87
2022/11/14 02:53:30;;;;;;;10.45;6.58;;;;;;;11.26;71.08;102433.56;1675987;83;21064;-87
2022/11/14 02:55:57;;;;;;;10.70;6.75;;;;;;;11.25;71.17;102426.50;1685240;83;21043;-88
2022/11/14 02:58:23;;;;;;;11.15;7.47;;;;;;;11.23;71.09;102428.16;1730782;82;21735;-87
2022/11/14 03:00:50;;;;;;;8.48;6.47;;;;;;;11.23;71.12;102429.05;1717012;81;20950;-87
2022/11/14 03:03:17;;;;;;;8.53;5.97;;;;;;;11.23;71.01;102425.10;1676827;83;21061;-87
2022/11/14 03:05:44;;;;;;;9.15;6.47;;;;;;;11.23;71.09;102420.25;1724482;82;21930;-87
2022/11/14 03:08:10;;;;;;;11.48;8.15;;;;;;;11.23;71.02;102419.83;1666844;85;21031;-87
2022/11/14 03:10:37;;;;;;;9.90;7.17;;;;;;;11.22;71.04;102414.09;1735642;82;21693;-87
2022/11/14 03:13:03;;;;;;;10.70;6.90;;;;;;;11.21;70.95;102416.22;1648387;85;21802;-87
2022/11/14 03:15:30;;;;;;;8.88;7.08;;;;;;;11.19;70.97;102414.34;1689813;83;21776;-87
2022/11/14 03:17:57;;;;;;;11.25;7.80;;;;;;;11.19;70.98;102409.97;1687375;83;21484;-87
2022/11/14 03:20:23;;;;;;;8.95;7.12;;;;;;;11.20;71.01;102410.86;1677748;83;21037;-88
2022/11/14 03:22:50;;;;;;;11.00;7.50;;;;;;;11.17;70.95;102410.73;1702767;82;22531;-87
2022/11/14 03:25:17;;;;;;;11.88;7.60;;;;;;;11.15;70.94;102413.29;1673721;85;21059;-87
2022/11/14 03:27:44;;;;;;;11.83;8.10;;;;;;;11.14;70.99;102410.57;1662598;84;21016;-87
2022/11/14 03:30:11;;;;;;;14.20;9.33;;;;;;;11.14;71.05;102407.52;1725454;82;21039;-87
2022/11/14 03:32:38;;;;;;;10.85;7.80;;;;;;;11.15;71.05;102401.42;1706517;81;21047;-87
2022/11/14 03:35:06;;;;;;;12.37;8.35;;;;;;;11.17;71.09;102400.20;1711077;82;21734;-86
2022/11/14 03:37:33;;;;;;;12.07;8.48;;;;;;;11.19;71.08;102399.85;1717127;83;21063;-87
2022/11/14 03:40:00;;;;;;;11.90;8.70;;;;;;;11.18;70.98;102402.87;1704512;82;21020;-86
2022/11/14 03:42:26;;;;;;;14.23;8.55;;;;;;;11.17;71.06;102400.20;1708130;82;21805;-86
2022/11/14 03:44:53;;;;;;;12.75;8.40;;;;;;;11.15;71.07;102393.52;1676586;83;21766;-86
2022/11/14 03:47:20;;;;;;;11.50;8.48;;;;;;;11.17;71.06;102397.56;1727277;82;21791;-86
2022/11/14 03:49:46;;;;;;;11.73;8.60;;;;;;;11.14;71.06;102393.02;1672753;84;21070;-87
2022/11/14 03:52:13;;;;;;;12.63;9.90;;;;;;;11.13;71.09;102394.25;1673301;85;21042;-87
2022/11/14 03:54:40;;;;;;;11.28;8.93;;;;;;;11.13;71.11;102394.25;1668588;85;21137;-86
2022/11/14 03:57:06;;;;;;;13.65;9.55;;;;;;;11.09;71.13;102394.12;1660043;85;22146;-86
2022/11/14 03:59:33;;;;;;;15.03;10.40;;;;;;;11.09;71.07;102386.61;1713242;82;21695;-86
2022/11/14 04:02:00;;;;;;;11.20;9.68;;;;;;;11.05;71.11;102386.88;1703936;82;21940;-87
2022/11/14 04:04:26;;;;;;;13.28;9.53;;;;;;;11.06;71.17;102378.58;1691953;83;21389;-86
2022/11/14 04:06:53;;;;;;;13.90;9.83;;;;;;;11.04;71.07;102383.77;1710777;83;20994;-87
2022/11/14 04:09:20;;;;;;;14.53;9.75;;;;;;;11.02;71.17;102384.53;1708771;83;21050;-86
2022/11/14 04:11:46;;;;;;;14.43;10.60;;;;;;;11.03;71.17;102385.00;1735288;82;21744;-86
2022/11/14 04:14:13;;;;;;;14.15;9.65;;;;;;;11.03;71.10;102384.58;1702307;83;21963;-87
2022/11/14 04:16:40;;;;;;;17.37;11.40;;;;;;;11.02;71.01;102385.84;1706375;83;20988;-87
2022/11/14 04:19:06;;;;;;;14.95;10.75;;;;;;;10.97;70.94;102379.44;1723779;82;20996;-87
2022/11/14 04:21:33;;;;;;;16.17;10.85;;;;;;;10.93;70.95;102382.75;1697971;83;21058;-87
2022/11/14 04:24:00;;;;;;;19.50;12.55;;;;;;;10.88;70.98;102378.55;1719753;81;21714;-87
2022/11/14 04:26:26;;;;;;;15.03;11.57;;;;;;;10.86;71.06;102379.78;1715572;82;21056;-87
2022/11/14 04:28:53;;;;;;;14.30;10.80;;;;;;;10.87;71.07;102376.77;1700429;82;20969;-88
2022/11/14 04:31:19;;;;;;;12.03;9.85;;;;;;;10.84;70.98;102372.65;1713171;82;21087;-86
2022/11/14 04:33:46;;;;;;;14.93;10.35;;;;;;;10.81;70.97;102373.41;1731171;82;21081;-86
2022/11/14 04:36:13;;;;;;;15.03;11.10;;;;;;;10.80;70.95;102367.64;1731359;82;21777;-86
2022/11/14 04:38:39;;;;;;;13.88;10.65;;;;;;;10.79;70.89;102369.80;1731628;82;21015;-86
2022/11/14 04:41:06;;;;;;;14.43;10.35;;;;;;;10.76;70.91;102367.00;1736771;82;20964;-86
2022/11/14 04:43:33;;;;;;;15.15;10.63;;;;;;;10.78;70.95;102360.50;1727295;82;20995;-85
2022/11/14 04:46:00;;;;;;;14.00;10.58;;;;;;;10.76;70.92;102352.52;1735408;81;21039;-86
2022/11/14 04:48:26;;;;;;;16.32;10.95;;;;;;;10.75;70.92;102355.06;1734416;82;21713;-87
2022/11/14 04:50:53;;;;;;;15.03;11.03;;;;;;;10.74;70.88;102359.44;1729307;81;21050;-86
2022/11/14 04:53:19;;;;;;;16.20;10.98;;;;;;;10.70;70.92;102350.91;1734559;82;21049;-85
2022/11/14 04:55:46;;;;;;;17.90;12.40;;;;;;;10.67;70.95;102350.73;1727462;82;21663;-86
2022/11/14 04:58:13;;;;;;;17.73;13.22;;;;;;;10.64;71.04;102344.91;1734934;81;20980;-87
2022/11/14 05:00:39;;;;;;;17.30;13.75;;;;;;;10.61;71.03;102351.33;1734974;82;21676;-86
2022/11/14 05:03:06;;;;;;;20.55;14.45;;;;;;;10.54;71.18;102343.05;1732534;82;20999;-86
2022/11/14 05:05:37;;;;;;;19.40;14.63;;;;;;;10.53;71.34;102340.84;1719266;82;21580;-86
2022/11/14 05:08:02;;;;;;;19.82;14.38;;;;;;;10.54;71.46;102341.73;1733320;80;21079;-85
2022/11/14 05:10:29;;;;;;;20.50;14.93;;;;;;;10.54;71.63;102339.09;1723701;81;21521;-86
2022/11/14 05:12:56;;;;;;;21.82;15.30;;;;;;;10.57;71.74;102341.90;1720262;82;21716;-85
2022/11/14 05:15:22;;;;;;;22.27;16.00;;;;;;;10.57;71.83;102342.79;1703598;81;21039;-85
2022/11/14 05:17:49;;;;;;;22.90;16.97;;;;;;;10.59;71.96;102338.92;1710421;82;20976;-85
2022/11/14 05:20:16;;;;;;;26.75;16.60;;;;;;;10.58;72.05;102332.73;1723267;82;20976;-85
2022/11/14 05:22:42;;;;;;;23.75;16.48;;;;;;;10.61;72.12;102338.59;1719137;80;21004;-85
2022/11/14 05:25:22;;;;;;;20.23;15.05;;;;;;;10.62;72.18;102345.25;1702417;82;21563;-85
2022/11/14 05:27:50;;;;;;;24.50;17.00;;;;;;;10.64;72.22;102343.59;1705988;82;21017;-85
2022/11/14 05:30:23;;;;;;;22.65;16.23;;;;;;;10.64;72.23;102343.98;1720353;81;21754;-85
2022/11/14 05:32:57;;;;;;;27.42;17.42;;;;;;;10.63;72.27;102348.78;1705115;82;21003;-85
2022/11/14 05:35:29;;;;;;;25.50;17.57;;;;;;;10.62;72.36;102347.89;1710920;82;21001;-85
2022/11/14 05:37:55;;;;;;;25.50;17.55;;;;;;;10.62;72.37;102341.30;1704409;81;22459;-86
2022/11/14 05:40:21;;;;;;;28.05;18.32;;;;;;;10.60;72.40;102338.97;1726106;82;21019;-85
2022/11/14 05:42:48;;;;;;;27.42;19.05;;;;;;;10.61;72.41;102339.91;1701662;82;21034;-85
2022/11/14 05:45:15;;;;;;;26.75;20.25;;;;;;;10.59;72.42;102341.14;1704389;81;21454;-88
2022/11/14 05:47:41;;;;;;;35.33;22.30;;;;;;;10.56;72.44;102331.75;1670435;85;21540;-86
2022/11/14 05:50:09;;;;;;;29.20;20.97;;;;;;;10.55;72.39;102329.97;1707363;82;23043;-86
2022/11/14 05:52:36;;;;;;;28.45;20.55;;;;;;;10.53;72.40;102334.64;1717521;82;21875;-87
2022/11/14 05:55:02;;;;;;;28.05;20.27;;;;;;;10.50;72.50;102333.66;1699665;83;21608;-86
2022/11/14 05:57:30;;;;;;;30.75;20.05;;;;;;;10.49;72.54;102335.83;1686913;83;21035;-87
2022/11/14 05:59:56;;;;;;;29.85;21.02;;;;;;;10.48;72.62;102327.84;1692246;83;22350;-86
2022/11/14 06:02:23;;;;;;;28.27;21.17;;;;;;;10.47;72.63;102328.66;1721137;82;21718;-86
2022/11/14 06:04:50;;;;;;;33.88;22.62;;;;;;;10.47;72.67;102332.22;1667424;83;22020;-85
2022/11/14 06:07:16;;;;;;;34.88;24.30;;;;;;;10.45;72.72;102332.52;1687097;83;21025;-86
2022/11/14 06:09:43;;;;;;;30.88;23.27;;;;;;;10.45;72.80;102330.31;1690125;82;21594;-85
2022/11/14 06:12:10;;;;;;;38.65;25.40;;;;;;;10.50;72.87;102330.13;1690706;83;21034;-85
2022/11/14 06:14:36;;;;;;;36.38;25.37;;;;;;;10.52;72.83;102335.06;1696875;82;21743;-85
2022/11/14 06:17:03;;;;;;;38.20;25.57;;;;;;;10.53;72.84;102329.38;1701649;82;21019;-85
2022/11/14 06:19:30;;;;;;;38.42;25.08;;;;;;;10.49;72.85;102330.56;1664918;83;21845;-85
2022/11/14 06:21:57;;;;;;;36.00;25.90;;;;;;;10.49;72.96;102330.95;1679008;83;21078;-85
2022/11/14 06:24:23;;;;;;;35.45;25.40;;;;;;;10.46;72.99;102332.13;1638112;84;21092;-85
2022/11/14 06:26:50;;;;;;;35.08;25.55;;;;;;;10.42;73.03;102337.65;1702322;82;21723;-88
2022/11/14 06:29:17;;;;;;;38.73;25.30;;;;;;;10.41;73.14;102332.30;1697631;82;21443;-86
2022/11/14 06:31:44;;;;;;;34.70;21.12;;;;;;;10.46;73.31;102340.03;1664125;83;21104;-86
2022/11/14 06:34:11;;;;;;;28.75;21.33;;;;;;;10.47;73.36;102337.48;1678178;83;22022;-88
2022/11/14 06:36:38;;;;;;;26.80;19.73;;;;;;;10.50;73.34;102344.62;1650529;84;21069;-87
2022/11/14 06:39:05;;;;;;;28.73;21.25;;;;;;;10.53;73.35;102339.52;1681747;83;21668;-85
2022/11/14 06:41:31;;;;;;;29.92;20.35;;;;;;;10.57;73.43;102343.21;1710335;82;21278;-86
2022/11/14 06:43:58;;;;;;;25.88;18.70;;;;;;;10.48;73.42;102321.27;1704837;82;20972;-86
2022/11/14 06:46:25;;;;;;;27.22;19.07;;;;;;;10.61;73.41;102339.48;1704354;82;20995;-86
2022/11/14 06:48:52;;;;;;;26.35;18.17;;;;;;;10.65;73.52;102346.70;1682160;83;21087;-86
2022/11/14 06:51:18;;;;;;;27.58;20.65;;;;;;;10.70;73.69;102346.53;1669466;83;21687;-86
2022/11/14 06:53:45;;;;;;;31.80;20.20;;;;;;;10.73;73.53;102346.19;1679483;83;21073;-86
2022/11/14 06:56:14;;;;;;;26.40;19.70;;;;;;;10.71;73.48;102347.42;1678886;83;21132;-86
2022/11/14 06:58:43;;;;;;;25.08;18.15;;;;;;;10.69;73.50;102351.29;1705783;82;21137;-86
2022/11/14 07:01:19;;;;;;;24.12;18.80;;;;;;;10.72;73.59;102352.27;1709740;82;21065;-86
2022/11/14 07:03:46;;;;;;;24.45;17.57;;;;;;;10.72;73.57;102354.90;1700441;82;22960;-86
2022/11/14 07:06:24;;;;;;;19.90;15.55;;;;;;;10.73;73.56;102348.82;1711271;82;21041;-86
2022/11/14 07:08:51;;;;;;;22.65;16.55;;;;;;;10.73;73.48;102357.62;1718091;82;21959;-86
2022/11/14 07:11:23;;;;;;;20.05;15.35;;;;;;;10.68;73.44;102352.13;1729295;82;20985;-86
2022/11/14 07:13:52;;;;;;;19.90;14.90;;;;;;;10.67;73.46;102351.63;1683042;83;21070;-87
2022/11/14 07:16:19;;;;;;;18.42;14.43;;;;;;;10.68;73.59;102353.45;1690528;82;21737;-85
2022/11/14 07:18:46;;;;;;;20.57;14.80;;;;;;;10.68;73.61;102352.56;1723647;82;21018;-87
2022/11/14 07:21:12;;;;;;;19.45;14.68;;;;;;;10.73;73.63;102356.72;1724713;82;21011;-87
2022/11/14 07:23:39;;;;;;;20.35;14.40;;;;;;;10.70;73.61;102350.91;1695300;83;21007;-86
2022/11/14 07:26:07;;;;;;;19.42;14.55;;;;;;;10.68;73.61;102354.77;1718527;82;21022;-87
2022/11/14 07:28:40;;;;;;;20.12;14.80;;;;;;;10.69;73.64;102350.39;1711669;82;21719;-86
2022/11/14 07:31:08;;;;;;;19.75;14.30;;;;;;;10.70;73.66;102349.58;1715613;82;21078;-86
2022/11/14 07:33:35;;;;;;;18.00;14.73;;;;;;;10.66;73.55;102341.94;1721927;82;21364;-85
2022/11/14 07:36:02;;;;;;;17.85;13.93;;;;;;;10.66;73.60;102340.62;1723186;82;21652;-86
2022/11/14 07:38:30;;;;;;;18.57;14.05;;;;;;;10.64;73.61;102343.59;1727200;82;21190;-86
2022/11/14 07:41:03;;;;;;;18.50;14.83;;;;;;;10.67;73.63;102346.78;1713145;82;22965;-86
2022/11/14 07:43:30;;;;;;;18.55;14.80;;;;;;;10.64;73.67;102338.33;1724760;82;20982;-86
2022/11/14 07:46:07;;;;;;;26.35;16.45;;;;;;;10.66;73.77;102331.80;1715126;82;21514;-86
2022/11/14 07:48:34;;;;;;;20.50;16.02;;;;;;;10.69;73.81;102328.91;1722112;82;21067;-86
2022/11/14 07:51:04;;;;;;;19.23;15.28;;;;;;;10.73;73.82;102326.44;1724212;82;20994;-86
2022/11/14 07:53:31;;;;;;;23.35;16.35;;;;;;;10.75;73.78;102329.62;1724877;82;21662;-86
2022/11/14 07:56:04;;;;;;;19.30;15.10;;;;;;;10.76;73.81;102326.17;1716960;82;21030;-86
2022/11/14 07:58:31;;;;;;;20.02;15.72;;;;;;;10.79;73.86;102321.07;1686218;83;21065;-86
2022/11/14 08:01:01;;;;;;;24.25;15.55;;;;;;;10.79;73.76;102320.14;1683280;84;21102;-86
2022/11/14 08:03:28;;;;;;;19.27;14.58;;;;;;;10.75;73.62;102318.19;1692514;83;21049;-86
2022/11/14 08:06:07;;;;;;;21.05;14.18;;;;;;;10.73;73.74;102318.53;1700115;81;22527;-86
2022/11/14 08:08:34;;;;;;;20.37;15.10;;;;;;;10.74;73.73;102319.93;1707926;82;21805;-86
2022/11/14 08:11:00;;;;;;;21.57;16.30;;;;;;;10.75;73.79;102317.77;1713770;82;21872;-86
2022/11/14 08:13:27;;;;;;;21.05;15.98;;;;;;;10.80;73.83;102316.27;1714369;81;21527;-86
2022/11/14 08:15:54;;;;;;;21.45;17.20;;;;;;;10.86;73.89;102319.62;1714506;82;21006;-86
2022/11/14 08:18:23;;;;;;;20.75;16.82;;;;;;;10.91;73.84;102311.96;1688450;82;21717;-86
2022/11/14 08:20:50;;;;;;;22.80;18.32;;;;;;;10.94;73.80;102311.67;1695885;81;20986;-86
2022/11/14 08:23:17;;;;;;;21.57;17.35;;;;;;;10.98;73.83;102302.18;1691610;81;21018;-86
2022/11/14 08:25:43;;;;;;;24.43;18.67;;;;;;;11.00;73.82;102293.54;1699739;81;21028;-86
2022/11/14 08:28:10;;;;;;;26.15;18.62;;;;;;;11.03;73.75;102293.66;1695385;81;21115;-86
2022/11/14 08:30:37;;;;;;;25.17;20.17;;;;;;;11.01;73.63;102299.70;1678411;81;21682;-86
2022/11/14 08:33:04;;;;;;;25.35;17.90;;;;;;;11.01;73.79;102292.70;1652054;84;21019;-85
2022/11/14 08:35:32;;;;;;;25.10;18.65;;;;;;;11.06;73.67;102286.34;1710788;82;21441;-86
2022/11/14 08:38:01;;;;;;;28.17;20.35;;;;;;;11.06;73.70;102287.66;1706001;80;21800;-86
2022/11/14 08:40:29;;;;;;;27.32;19.62;;;;;;;11.07;73.65;102285.50;1704223;82;21069;-86
2022/11/14 08:43:00;;;;;;;28.25;20.37;;;;;;;11.06;73.60;102281.97;1684270;81;21749;-87
2022/11/14 08:45:28;;;;;;;25.25;19.60;;;;;;;11.06;73.69;102268.80;1715966;81;20884;-86
2022/11/14 08:47:55;;;;;;;25.12;18.35;;;;;;;11.13;73.72;102263.80;1715755;80;21043;-86
2022/11/14 08:50:22;;;;;;;26.02;19.60;;;;;;;11.20;73.67;102265.90;1717166;80;21024;-86
2022/11/14 08:52:50;;;;;;;22.58;18.48;;;;;;;11.24;73.58;102264.81;1711072;81;20927;-87
2022/11/14 08:55:18;;;;;;;33.90;24.45;;;;;;;11.27;73.43;102261.41;1712590;81;21730;-86
2022/11/14 08:57:45;;;;;;;31.90;24.30;;;;;;;11.27;73.47;102260.98;1696545;81;21092;-86
2022/11/14 09:00:13;;;;;;;34.45;26.48;;;;;;;11.35;73.44;102256.05;1663744;84;21013;-87
2022/11/14 09:02:40;;;;;;;31.75;24.75;;;;;;;11.42;73.52;102251.56;1715563;80;22157;-87
2022/11/14 09:05:07;;;;;;;25.77;21.10;;;;;;;11.55;73.43;102246.43;1712429;81;21507;-87
2022/11/14 09:07:34;;;;;;;27.42;18.62;;;;;;;11.65;73.37;102245.09;1692935;82;21709;-87
2022/11/14 09:10:01;;;;;;;22.37;17.82;;;;;;;11.71;72.96;102243.15;1723851;81;21006;-85
2022/11/14 09:12:27;;;;;;;16.48;13.13;;;;;;;11.73;72.80;102241.08;1719220;81;22149;-86
2022/11/14 09:14:54;;;;;;;15.25;11.65;;;;;;;11.70;72.56;102236.98;1717439;81;21011;-87
2022/11/14 09:17:21;;;;;;;14.60;11.00;;;;;;;11.66;72.48;102241.64;1725753;81;21046;-87
2022/11/14 09:19:48;;;;;;;16.70;10.88;;;;;;;11.64;72.32;102234.08;1727721;80;22832;-87
2022/11/14 09:22:14;;;;;;;14.25;11.15;;;;;;;11.59;72.25;102232.97;1683759;83;21056;-87
2022/11/14 09:24:41;;;;;;;16.27;10.65;;;;;;;11.52;72.21;102230.88;1652963;83;21118;-85
2022/11/14 09:27:08;;;;;;;14.93;10.55;;;;;;;11.54;72.27;102234.48;1697244;82;21534;-85
2022/11/14 09:29:35;;;;;;;13.30;10.23;;;;;;;11.51;72.06;102233.95;1679370;84;21087;-85
2022/11/14 09:32:01;;;;;;;11.75;9.48;;;;;;;11.48;72.00;102236.00;1691696;83;21769;-85
2022/11/14 09:34:28;;;;;;;12.85;9.93;;;;;;;11.50;71.98;102231.23;1723871;82;21821;-85
2022/11/14 09:36:58;;;;;;;12.10;9.45;;;;;;;11.45;71.87;102231.04;1731181;81;21814;-85
2022/11/14 09:39:25;;;;;;;11.73;9.68;;;;;;;11.47;71.89;102226.31;1680216;83;21597;-85
2022/11/14 09:42:24;;;;;;;15.30;10.05;;;;;;;11.50;71.82;102229.91;1653889;85;21082;-85
2022/11/14 09:45:02;;;;;;;11.93;10.15;;;;;;;11.52;71.81;102229.14;1643571;85;21799;-87
2022/11/14 09:47:32;;;;;;;12.23;9.58;;;;;;;11.58;71.72;102228.12;1662037;82;21516;-85
2022/11/14 09:50:08;;;;;;;15.40;10.15;;;;;;;11.65;71.71;102226.63;1688490;82;21061;-85
2022/11/14 09:52:43;;;;;;;12.68;10.43;;;;;;;11.71;71.47;102222.05;1657341;83;21031;-85
2022/11/14 09:55:15;;;;;;;15.05;10.93;;;;;;;11.74;71.31;102219.55;1653016;83;21440;-85
2022/11/14 09:57:43;;;;;;;11.05;9.45;;;;;;;11.81;71.29;102212.40;1684389;83;21675;-85
2022/11/14 10:00:21;;;;;;;10.65;9.43;;;;;;;11.85;71.10;102211.27;1688002;83;21021;-85
2022/11/14 10:03:10;;;;;;;14.93;10.30;;;;;;;11.94;71.02;102209.91;1688900;83;21696;-89
2022/11/14 10:05:51;;;;;;;14.83;10.75;;;;;;;12.02;70.85;102208.48;1660380;83;21215;-86
2022/11/14 10:08:53;;;;;;;12.70;9.95;;;;;;;12.09;70.73;102201.31;1678091;82;21016;-87
2022/11/14 10:11:45;;;;;;;12.95;9.80;;;;;;;12.18;70.63;102203.02;1651780;84;21719;-87
2022/11/14 10:14:23;;;;;;;14.68;9.53;;;;;;;12.30;70.20;102202.62;1723569;81;20978;-87
2022/11/14 10:17:13;;;;;;;12.50;9.80;;;;;;;12.31;70.03;102196.48;1726081;81;21038;-87
2022/11/14 10:20:12;;;;;;;11.40;10.13;;;;;;;12.38;69.87;102199.86;1718221;81;21547;-84
2022/11/14 10:23:23;;;;;;;12.78;10.03;;;;;;;12.44;69.67;102196.56;1721469;81;21003;-87
2022/11/14 10:26:08;;;;;;;13.35;11.95;;;;;;;12.49;69.62;102184.89;1720140;81;22561;-85
2022/11/14 10:29:15;;;;;;;12.80;11.50;;;;;;;12.49;69.36;102184.45;1721646;81;21417;-85
2022/11/14 10:32:23;;;;;;;13.55;11.40;;;;;;;12.48;69.23;102182.67;1720453;81;21876;-85
2022/11/14 10:34:57;;;;;;;13.88;11.80;;;;;;;12.38;69.12;102182.70;1708932;81;21886;-85
2022/11/14 10:37:37;;;;;;;15.32;12.65;;;;;;;12.32;69.11;102179.81;1724583;82;20978;-86
2022/11/14 10:40:20;;;;;;;15.20;13.05;;;;;;;12.27;69.04;102184.43;1681760;83;21950;-85
2022/11/14 10:42:52;;;;;;;18.65;12.95;;;;;;;12.19;69.01;102177.09;1668946;83;20994;-85
2022/11/14 10:45:32;;;;;;;18.17;14.60;;;;;;;12.15;69.03;102169.89;1626698;85;21125;-85
2022/11/14 10:48:04;;;;;;;21.93;13.38;;;;;;;12.10;69.13;102166.14;1626629;86;21609;-85
2022/11/14 10:51:01;;;;;;;19.27;14.78;;;;;;;12.06;69.05;102162.48;1664289;83;21059;-85
2022/11/14 10:53:55;;;;;;;18.80;13.72;;;;;;;11.92;69.01;102156.14;1666638;83;21781;-85
2022/11/14 10:56:21;;;;;;;;;;;;;;;11.86;69.31;102160.31;1665388;83;21681;-85
2022/11/14 10:58:48;;;;;;;18.95;13.88;;;;;;;11.80;69.21;102150.80;1666710;83;21082;-86
2022/11/14 11:01:40;;;;;;;19.80;15.85;;;;;;;11.72;69.28;102144.73;1664977;83;21209;-85
2022/11/14 11:04:35;;;;;;;18.52;15.30;;;;;;;11.58;69.25;102144.12;1663922;83;22056;-85
2022/11/14 11:11:28;;;;;;;17.65;15.08;;;;;;;11.54;69.54;102142.19;1660675;83;21745;-87
2022/11/14 11:12:46;;;;;;;22.13;14.93;;;;;;;11.45;69.71;102142.28;1664750;83;21100;-85
2022/11/14 11:15:21;;;;;;;19.42;17.35;;;;;;;11.43;69.67;102144.34;1662739;83;21069;-88
2022/11/14 11:18:03;;;;;;;22.27;16.35;;;;;;;11.34;69.50;102142.23;1662378;83;21621;-85
2022/11/14 11:20:37;;;;;;;20.70;17.40;;;;;;;11.23;69.67;102139.54;1668186;83;22560;-85
2022/11/14 11:23:12;;;;;;;;;;;;;;;11.20;69.86;102138.07;1699401;81;21030;-85
2022/11/14 11:25:51;;;;;;;22.07;18.65;;;;;;;11.20;69.98;102132.80;1723816;81;20149;-86
2022/11/14 11:28:19;;;;;;;20.23;16.85;;;;;;;11.19;69.95;102131.91;1724251;82;20986;-85
2022/11/14 11:30:58;;;;;;;20.32;17.80;;;;;;;11.14;69.86;102129.48;1724478;82;22471;-85